Time;durP1;ratioP1;P1;durP2;ratioP2;P2;SDS_P1;SDS_P2;PMS_P1;PMS_P2;Temp;Humidity;BMP_temperature;BMP_pressure;BME280_temperature;BME280_humidity;BME280_pressure;Samples;Min_cycle;Max_cycle;Signal;HPM_P1;HPM_P2
2023/11/06 00:03:59;;;;;;;2.15;0.90;;;;;;;10.07;68.45;97905.75;30964291;28;125672;-64
2023/11/06 00:18:59;;;;;;;1.05;0.60;;;;;;;10.14;68.81;97940.25;30965228;28;102880;-63
2023/11/06 00:33:59;;;;;;;0.80;0.50;;;;;;;10.10;68.67;97979.81;30963127;28;125539;-63
2023/11/06 00:49:01;;;;;;;1.13;0.60;;;;;;;10.05;68.69;98008.91;30960368;28;124407;-63
2023/11/06 01:04:01;;;;;;;1.40;0.40;;;;;;;10.28;68.25;98044.72;30961262;28;96578;-63
2023/11/06 01:19:01;;;;;;;0.75;0.40;;;;;;;10.25;67.36;98066.44;30959588;28;125336;-63
2023/11/06 01:34:02;;;;;;;2.20;0.60;;;;;;;10.16;67.13;98095.97;30955880;28;127371;-63
2023/11/06 01:49:03;;;;;;;0.40;0.40;;;;;;;10.20;66.48;98127.47;30966289;28;96635;-63
2023/11/06 02:04:06;;;;;;;2.35;0.60;;;;;;;10.13;65.42;98162.94;30942174;28;97323;-63
2023/11/06 02:19:07;;;;;;;0.60;0.60;;;;;;;10.06;64.48;98186.13;30974037;28;97343;-63
2023/11/06 02:34:08;;;;;;;1.07;0.57;;;;;;;10.02;64.10;98211.53;30974340;28;97544;-63
2023/11/06 02:49:08;;;;;;;0.52;0.50;;;;;;;9.98;63.61;98242.25;30971586;28;96653;-63
2023/11/06 03:04:12;;;;;;;0.82;0.45;;;;;;;9.93;62.41;98269.47;30977877;28;126940;-64
2023/11/06 03:19:12;;;;;;;2.23;1.07;;;;;;;9.81;61.63;98284.47;30952785;28;97771;-63
2023/11/06 03:34:12;;;;;;;3.47;0.52;;;;;;;9.57;61.08;98316.06;30967501;28;126464;-63
2023/11/06 03:49:12;;;;;;;0.98;0.65;;;;;;;9.35;60.62;98339.44;30966834;28;97855;-63
2023/11/06 04:04:13;;;;;;;2.20;0.50;;;;;;;9.23;60.69;98357.06;30961950;28;126958;-63
2023/11/06 04:19:13;;;;;;;1.50;0.80;;;;;;;8.87;60.67;98374.22;30962116;28;126400;-63
2023/11/06 04:34:13;;;;;;;0.60;0.40;;;;;;;8.51;61.96;98397.44;30960387;28;117473;-64
2023/11/06 04:49:14;;;;;;;1.77;0.90;;;;;;;8.16;62.67;98425.88;30958561;28;97279;-63
2023/11/06 05:04:16;;;;;;;1.23;0.80;;;;;;;7.95;64.21;98454.13;30967518;28;124236;-64
2023/11/06 05:19:16;;;;;;;4.23;1.30;;;;;;;7.91;65.10;98466.16;31060840;28;97124;-65
2023/11/06 05:34:16;;;;;;;2.55;0.95;;;;;;;7.97;65.66;98499.84;31099326;28;127323;-62
2023/11/06 05:49:17;;;;;;;3.88;0.95;;;;;;;8.02;66.15;98521.28;31098320;28;111847;-63
2023/11/06 06:04:18;;;;;;;1.67;0.77;;;;;;;8.22;66.64;98547.13;31097291;28;97229;-63
2023/11/06 06:19:18;;;;;;;1.95;0.80;;;;;;;8.63;66.34;98571.03;31094233;28;125501;-63
2023/11/06 06:34:20;;;;;;;4.05;1.00;;;;;;;8.91;66.19;98614.44;31092611;28;96751;-64
2023/11/06 06:49:20;;;;;;;2.10;0.90;;;;;;;9.23;65.92;98649.31;31093626;28;97202;-63
2023/11/06 07:04:20;;;;;;;1.75;0.70;;;;;;;9.60;65.69;98681.72;31090830;28;110816;-63
2023/11/06 07:19:21;;;;;;;1.13;0.70;;;;;;;9.99;64.54;98693.44;31091566;28;97201;-63
2023/11/06 07:34:21;;;;;;;3.65;0.93;;;;;;;10.66;63.55;98698.78;31088386;28;126955;-64
2023/11/06 07:49:22;;;;;;;2.35;0.77;;;;;;;11.83;63.13;98717.41;31084253;28;97101;-62
2023/11/06 08:04:22;;;;;;;5.65;2.55;;;;;;;12.42;59.71;98729.78;31087797;28;97149;-63
2023/11/06 08:19:22;;;;;;;3.90;1.80;;;;;;;12.31;59.08;98766.00;31085671;28;125428;-62
2023/11/06 08:34:22;;;;;;;2.63;1.08;;;;;;;12.40;58.07;98799.44;31080976;28;103559;-64
2023/11/06 08:49:23;;;;;;;3.65;0.93;;;;;;;12.27;57.59;98811.00;31078570;28;127092;-63
2023/11/06 09:04:23;;;;;;;2.63;1.00;;;;;;;12.24;57.93;98848.81;31077464;28;101385;-63
2023/11/06 09:19:24;;;;;;;3.03;1.08;;;;;;;12.24;57.45;98867.50;31078142;28;119771;-63
2023/11/06 09:34:24;;;;;;;2.47;1.15;;;;;;;12.28;56.94;98889.25;31076738;28;97449;-62
2023/11/06 09:49:29;;;;;;;5.32;1.20;;;;;;;13.29;56.38;98892.88;31075586;28;125376;-64
2023/11/06 10:04:32;;;;;;;2.57;1.10;;;;;;;14.24;53.77;98903.41;31076196;28;96903;-62
2023/11/06 10:19:34;;;;;;;2.53;0.87;;;;;;;16.49;48.83;98906.22;31097423;28;96766;-62
2023/11/06 10:34:37;;;;;;;2.67;0.70;;;;;;;16.52;46.53;98924.53;31095509;28;97154;-62
2023/11/06 10:49:51;;;;;;;1.80;0.67;;;;;;;25.71;36.06;98922.69;31093607;28;96824;-62
2023/11/06 11:04:52;;;;;;;0.90;0.47;;;;;;;25.16;31.81;98956.06;31093913;28;98071;-65
2023/11/06 11:19:54;;;;;;;2.50;0.70;;;;;;;31.31;24.67;98954.88;31089721;28;96771;-64
2023/11/06 11:34:57;;;;;;;1.50;0.43;;;;;;;24.01;29.22;98987.81;31087268;28;97092;-62
2023/11/06 11:49:58;;;;;;;2.53;0.70;;;;;;;23.36;28.98;98978.09;31088289;28;97106;-65
2023/11/06 12:05:11;;;;;;;2.77;0.57;;;;;;;24.02;31.53;98996.78;31088094;28;97915;-62
2023/11/06 12:20:14;;;;;;;2.00;0.70;;;;;;;19.60;34.50;99014.09;31085221;28;97249;-63
2023/11/06 12:35:15;;;;;;;2.47;0.70;;;;;;;16.19;40.29;99031.66;31081105;28;97192;-63
2023/11/06 12:50:17;;;;;;;3.75;0.90;;;;;;;14.65;43.89;99044.72;31081026;28;97547;-62
2023/11/06 13:05:20;;;;;;;3.47;1.13;;;;;;;13.93;46.07;99072.03;31080425;28;97402;-65
2023/11/06 13:20:32;;;;;;;3.33;1.10;;;;;;;21.52;38.06;99086.13;31078852;28;97144;-64
2023/11/06 13:35:38;;;;;;;2.47;1.00;;;;;;;15.56;44.22;99121.72;31077570;28;97437;-62
2023/11/06 13:50:46;;;;;;;3.90;1.93;;;;;;;17.78;43.07;99146.09;31093711;28;96841;-62
2023/11/06 14:05:48;;;;;;;3.00;1.27;;;;;;;18.16;42.17;99155.38;31091675;28;97106;-62
2023/11/06 14:20:53;;;;;;;1.40;1.00;;;;;;;19.79;40.29;99181.19;30922952;28;97537;-61
2023/11/06 14:35:53;;;;;;;2.47;1.20;;;;;;;16.35;43.14;99201.31;30967056;28;98157;-61
2023/11/06 14:50:57;;;;;;;4.15;1.17;;;;;;;15.83;44.04;99200.03;30981802;28;97194;-61
2023/11/06 15:05:59;;;;;;;3.57;1.37;;;;;;;14.37;46.85;99200.63;30969082;28;97020;-61
2023/11/06 15:20:59;;;;;;;5.33;1.30;;;;;;;12.42;50.47;99210.50;30967539;28;97147;-61
2023/11/06 15:36:00;;;;;;;5.97;2.22;;;;;;;11.42;53.46;99232.47;30967177;28;96693;-63
2023/11/06 15:51:01;;;;;;;11.03;2.90;;;;;;;10.69;55.90;99270.19;30965355;28;97331;-62
2023/11/06 16:06:01;;;;;;;8.10;3.20;;;;;;;10.13;57.38;99282.41;30963764;28;96988;-62
2023/11/06 16:21:04;;;;;;;9.77;4.27;;;;;;;9.81;58.98;99297.78;30961346;28;97182;-62
2023/11/06 16:36:10;;;;;;;8.03;2.67;;;;;;;9.58;60.16;99313.88;30960502;28;97007;-64
2023/11/06 16:51:16;;;;;;;7.53;2.93;;;;;;;9.30;60.35;99341.94;30955344;28;97238;-64
2023/11/06 17:06:17;;;;;;;11.20;4.13;;;;;;;8.88;61.04;99351.31;30955360;28;96920;-62
2023/11/06 17:21:24;;;;;;;8.00;2.97;;;;;;;8.69;62.08;99363.25;30962171;28;96906;-61
2023/11/06 17:36:24;;;;;;;5.50;2.20;;;;;;;8.50;62.86;99374.38;30970898;28;97175;-61
2023/11/06 17:51:24;;;;;;;8.07;3.10;;;;;;;8.33;63.79;99390.38;30959190;28;124890;-61
2023/11/06 18:06:24;;;;;;;8.05;2.85;;;;;;;8.19;63.54;99401.72;30959814;28;97390;-63
2023/11/06 18:21:31;;;;;;;11.82;5.53;;;;;;;8.05;63.98;99405.94;30958661;28;125517;-61
2023/11/06 18:36:31;;;;;;;8.13;3.33;;;;;;;7.88;64.49;99437.00;30963544;28;97130;-62
2023/11/06 18:51:32;;;;;;;12.32;4.60;;;;;;;7.73;64.86;99445.66;30961817;28;124758;-63
2023/11/06 19:06:34;;;;;;;12.43;6.97;;;;;;;7.58;65.53;99452.66;30961672;28;96786;-63
2023/11/06 19:21:40;;;;;;;10.57;5.20;;;;;;;7.61;65.61;99447.03;30960979;28;97601;-62
2023/11/06 19:36:42;;;;;;;13.97;5.43;;;;;;;7.57;66.06;99458.97;30957185;28;97173;-62
2023/11/06 19:51:42;;;;;;;10.00;3.10;;;;;;;7.74;65.63;99452.63;30957390;28;97553;-65
2023/11/06 20:06:43;;;;;;;6.07;2.55;;;;;;;7.76;65.81;99461.25;30957004;28;97231;-62
2023/11/06 20:21:43;;;;;;;4.60;2.22;;;;;;;7.84;65.38;99464.88;30954749;28;96731;-61
2023/11/06 20:36:48;;;;;;;6.07;2.00;;;;;;;7.68;65.40;99463.09;30953320;28;97187;-63
2023/11/06 20:51:48;;;;;;;8.50;3.77;;;;;;;7.48;65.43;99470.56;30950466;28;97145;-60
2023/11/06 21:06:49;;;;;;;8.25;3.40;;;;;;;7.42;65.83;99478.22;30934038;28;97494;-61
2023/11/06 21:21:49;;;;;;;6.32;2.00;;;;;;;7.38;66.31;99494.59;30950117;28;96663;-60
2023/11/06 21:36:49;;;;;;;7.32;2.53;;;;;;;7.38;65.75;99492.78;30950461;28;126659;-63
2023/11/06 21:51:49;;;;;;;7.07;2.58;;;;;;;7.30;65.94;99511.34;30938042;28;97275;-61
2023/11/06 22:06:51;;;;;;;8.80;3.55;;;;;;;7.42;66.06;99512.66;30965570;28;126607;-60
2023/11/06 22:21:52;;;;;;;5.70;2.47;;;;;;;7.84;66.43;99521.38;30964617;28;97583;-73
2023/11/06 22:36:52;;;;;;;7.65;2.92;;;;;;;8.21;66.14;99527.91;30949249;28;121183;-67
2023/11/06 22:51:53;;;;;;;6.32;2.28;;;;;;;8.35;65.94;99531.69;30971304;28;126790;-73
2023/11/06 23:06:53;;;;;;;5.50;2.40;;;;;;;8.37;65.56;99539.47;30970618;28;125533;-75
2023/11/06 23:21:54;;;;;;;5.57;2.40;;;;;;;8.16;65.36;99540.03;30971397;28;97110;-73
2023/11/06 23:36:54;;;;;;;6.32;2.70;;;;;;;8.11;65.77;99545.88;30970180;28;121031;-75
2023/11/06 23:51:54;;;;;;;6.15;1.83;;;;;;;8.33;66.04;99565.53;30967174;28;124474;-67
